This is the latest recevied weather packets stored in our database for station/object SP1BMW-13. If no packets are shown the sender has not sent any weather packets the latest 10 day(s).
| Time | Temp. | Humidity | Pressure | Rain* | Wind** | Luminosity | Snow |
|---|---|---|---|---|---|---|---|
| 1777210370 | 12.22° C | 27% | 1023.7 hPa | 0 mm | 0.89 m/s, 301° | 535 W/m² | - |
| 1777210310 | 12.22° C | 26% | 1023.7 hPa | 0 mm | 0.89 m/s, 298° | 537 W/m² | - |
| 1777210253 | 12.22° C | 28% | 1023.6 hPa | 0 mm | 1.34 m/s, 17° | 538 W/m² | - |
| 1777210190 | 12.22° C | 25% | 1023.8 hPa | 0 mm | 1.79 m/s, 280° | 540 W/m² | - |
| 1777210130 | 12.22° C | 23% | 1023.8 hPa | 0 mm | 1.34 m/s, 302° | 542 W/m² | - |
| 1777210070 | 12.78° C | 23% | 1023.7 hPa | 0 mm | 0.89 m/s, 266° | 543 W/m² | - |
| 1777210010 | 12.78° C | 22% | 1024.1 hPa | 0 mm | 2.24 m/s, 255° | 545 W/m² | - |
| 1777209950 | 12.78° C | 23% | 1023.9 hPa | 0 mm | 1.79 m/s, 292° | 546 W/m² | - |
| 1777209893 | 12.78° C | 24% | 1023.8 hPa | 0 mm | 0.45 m/s, 288° | 548 W/m² | - |
| 1777209830 | 12.78° C | 22% | 1023.8 hPa | 0 mm | 2.24 m/s, 261° | 550 W/m² | - |
| 1777209770 | 12.78° C | 22% | 1023.8 hPa | 0 mm | 2.24 m/s, 262° | 551 W/m² | - |
| 1777209710 | 12.78° C | 23% | 1023.8 hPa | 0 mm | 2.68 m/s, 317° | 552 W/m² | - |
| 1777209650 | 12.22° C | 24% | 1023.7 hPa | 0 mm | 1.34 m/s, 280° | 554 W/m² | - |
| 1777209590 | 12.22° C | 26% | 1023.7 hPa | 0 mm | 0.89 m/s, 235° | 555 W/m² | - |
| 1777209533 | 12.22° C | 25% | 1023.7 hPa | 0 mm | 0.45 m/s, 305° | 557 W/m² | - |
| 1777209470 | 11.67° C | 24% | 1023.9 hPa | 0 mm | 3.13 m/s, 303° | 558 W/m² | - |
| 1777209416 | 11.67° C | 25% | 1023.7 hPa | 0 mm | 0.89 m/s, 241° | 560 W/m² | - |
| 1777209353 | 11.67° C | 24% | 1023.8 hPa | 0 mm | 1.34 m/s, 63° | 561 W/m² | - |
| 1777209290 | 12.22° C | 26% | 1023.9 hPa | 0 mm | 1.79 m/s, 357° | 564 W/m² | - |
| 1777209233 | 12.22° C | 24% | 1023.7 hPa | 0 mm | 2.68 m/s, 312° | 565 W/m² | - |
| 1777209170 | 12.22° C | 25% | 1023.8 hPa | 0 mm | 3.58 m/s, 297° | 568 W/m² | - |
| 1777209110 | 12.22° C | 24% | 1023.9 hPa | 0 mm | 2.24 m/s, 59° | 569 W/m² | - |
| 1777209050 | 12.22° C | 24% | 1024 hPa | 0 mm | 3.13 m/s, 12° | 572 W/m² | - |
| 1777208990 | 12.22° C | 25% | 1023.9 hPa | 0 mm | 2.68 m/s, 313° | 573 W/m² | - |
| 1777208930 | 12.22° C | 27% | 1023.8 hPa | 0 mm | 0.89 m/s, 340° | 574 W/m² | - |
* Rain latest hour (hover to see other rain measurements)
** Current wind speed in m/s (hover to see current wind gust speed)